createdAt,value
2022-12-23T00:01:28.930Z,67.33
2022-12-23T00:04:00.470Z,67.45
2022-12-23T00:06:28.880Z,66.32
2022-12-23T00:08:59.441Z,67.03
2022-12-23T00:11:29.420Z,67.75
2022-12-23T00:14:31.342Z,68.19
2022-12-23T00:17:00.076Z,68.37
2022-12-23T00:19:28.706Z,68.40
2022-12-23T00:21:56.861Z,67.22
2022-12-23T00:24:25.627Z,67.39
2022-12-23T00:26:53.753Z,66.48
2022-12-23T00:29:23.316Z,66.83
2022-12-23T00:31:51.589Z,67.07
2022-12-23T00:34:19.947Z,66.87
2022-12-23T00:36:48.382Z,67.36
2022-12-23T00:39:33.733Z,67.31
2022-12-23T00:42:19.687Z,66.47
2022-12-23T00:44:49.376Z,66.92
2022-12-23T00:47:31.417Z,66.84
2022-12-23T00:50:00.052Z,66.70
2022-12-23T00:52:28.667Z,66.73
2022-12-23T00:54:56.771Z,66.19
2022-12-23T00:57:25.033Z,67.02
2022-12-23T00:59:54.820Z,66.92
2022-12-23T01:02:40.779Z,66.35
2022-12-23T01:05:29.676Z,66.56
2022-12-23T01:07:58.104Z,66.85
2022-12-23T01:10:26.736Z,67.33
2022-12-23T01:12:55.097Z,67.15
2022-12-23T01:15:25.252Z,67.96
2022-12-23T01:17:53.695Z,67.73
2022-12-23T01:20:22.048Z,66.35
2022-12-23T01:22:50.232Z,67.08
2022-12-23T01:25:19.411Z,67.83
2022-12-23T01:27:47.799Z,66.93
2022-12-23T01:30:16.105Z,66.60
2022-12-23T01:32:45.675Z,66.10
2022-12-23T01:35:14.077Z,67.05
2022-12-23T01:37:42.464Z,67.57
2022-12-23T01:40:11.803Z,66.30
2022-12-23T01:42:44.791Z,66.49
2022-12-23T01:45:18.652Z,65.97
2022-12-23T01:47:53.110Z,66.05
2022-12-23T01:50:25.118Z,65.81
2022-12-23T01:53:06.876Z,65.69
2022-12-23T01:55:39.788Z,65.89
2022-12-23T01:58:13.068Z,67.84
2022-12-23T02:01:01.248Z,68.59
2022-12-23T02:03:43.505Z,67.29
2022-12-23T02:06:36.208Z,68.03
2022-12-23T02:09:20.938Z,67.35
2022-12-23T02:12:11.387Z,67.69
2022-12-23T02:15:12.205Z,66.91
2022-12-23T02:17:52.685Z,68.15
2022-12-23T02:20:47.565Z,68.61
2022-12-23T02:23:50.173Z,66.82
2022-12-23T02:26:50.632Z,66.11
2022-12-23T02:30:04.597Z,65.57
2022-12-23T02:32:44.425Z,65.80
2022-12-23T02:35:16.307Z,67.29
2022-12-23T02:37:54.699Z,66.94
2022-12-23T02:40:32.218Z,67.80
2022-12-23T02:43:06.305Z,66.84
2022-12-23T02:45:40.516Z,66.61
2022-12-23T02:48:14.217Z,66.71
2022-12-23T02:50:45.854Z,66.63
2022-12-23T02:53:20.214Z,68.03
2022-12-23T02:55:51.664Z,67.91
2022-12-23T02:58:24.394Z,68.68
2022-12-23T03:00:53.306Z,68.50
2022-12-23T03:03:23.667Z,69.22
2022-12-23T03:05:53.445Z,68.38
2022-12-23T03:08:26.545Z,69.24
2022-12-23T03:11:04.938Z,68.96
2022-12-23T03:13:50.231Z,68.21
2022-12-23T03:16:24.755Z,68.19
2022-12-23T03:19:07.413Z,68.31
2022-12-23T03:21:42.622Z,68.99
2022-12-23T03:24:22.234Z,69.09
2022-12-23T03:26:58.912Z,68.34
2022-12-23T03:29:36.819Z,68.60
2022-12-23T03:32:06.418Z,68.80
2022-12-23T03:34:40.829Z,68.62
2022-12-23T03:37:12.101Z,69.50
2022-12-23T03:39:44.662Z,69.50
2022-12-23T03:42:18.574Z,69.89
2022-12-23T03:45:27.947Z,69.35
2022-12-23T03:47:45.498Z,68.17
2022-12-23T03:50:18.630Z,67.69
2022-12-23T03:52:53.074Z,67.72
2022-12-23T03:55:26.594Z,68.62
2022-12-23T03:58:02.107Z,69.46
2022-12-23T04:00:35.578Z,68.95
2022-12-23T04:03:11.751Z,68.92
2022-12-23T04:05:43.011Z,68.80
2022-12-23T04:08:14.495Z,70.05
2022-12-23T04:10:42.851Z,69.71
2022-12-23T04:13:11.219Z,70.15
2022-12-23T04:15:42.175Z,69.31
2022-12-23T04:18:12.037Z,68.47
2022-12-23T04:20:41.643Z,68.06
2022-12-23T04:23:10.156Z,68.61
2022-12-23T04:25:38.274Z,68.79
2022-12-23T04:28:06.583Z,69.01
2022-12-23T04:30:35.287Z,69.53
2022-12-23T04:33:03.993Z,68.40
2022-12-23T04:35:32.890Z,68.94
2022-12-23T04:38:02.887Z,69.56
2022-12-23T04:40:31.355Z,68.96
2022-12-23T04:42:59.599Z,68.73
2022-12-23T04:45:27.831Z,69.37
2022-12-23T04:47:56.311Z,68.21
2022-12-23T04:50:24.751Z,68.60
2022-12-23T04:52:53.009Z,67.88
2022-12-23T04:55:22.458Z,68.90
2022-12-23T04:57:51.246Z,68.27
2022-12-23T05:00:20.208Z,68.41
2022-12-23T05:02:48.570Z,68.18
2022-12-23T05:05:16.951Z,68.20
2022-12-23T05:07:45.471Z,67.30
2022-12-23T05:10:13.719Z,67.95
2022-12-23T05:12:43.248Z,67.86
2022-12-23T05:15:12.202Z,67.35
2022-12-23T05:17:40.354Z,68.38
2022-12-23T05:20:10.796Z,68.79
2022-12-23T05:22:39.050Z,68.15
2022-12-23T05:25:08.727Z,67.10
2022-12-23T05:27:37.391Z,66.72
2022-12-23T05:30:08.777Z,65.95
2022-12-23T05:32:39.320Z,66.38
2022-12-23T05:35:08.782Z,67.33
2022-12-23T05:37:37.098Z,68.04
2022-12-23T05:40:06.175Z,67.97
2022-12-23T05:42:34.665Z,67.04
2022-12-23T05:45:03.014Z,66.69
2022-12-23T05:47:32.844Z,68.00
2022-12-23T05:50:00.986Z,68.30
2022-12-23T05:52:29.099Z,67.64
2022-12-23T05:54:57.690Z,67.18
2022-12-23T05:57:25.763Z,68.15
2022-12-23T05:59:54.502Z,67.81
2022-12-23T06:02:23.166Z,69.03
2022-12-23T06:04:52.971Z,68.07
2022-12-23T06:07:21.195Z,69.63
2022-12-23T06:09:49.387Z,69.49
2022-12-23T06:12:18.313Z,70.44
2022-12-23T06:14:46.540Z,70.03
2022-12-23T06:17:15.656Z,70.30
2022-12-23T06:19:44.115Z,69.67
2022-12-23T06:22:13.710Z,70.34
2022-12-23T06:24:42.292Z,70.42
2022-12-23T06:27:10.541Z,70.06
2022-12-23T06:29:38.822Z,71.03
2022-12-23T06:32:07.141Z,71.18
2022-12-23T06:34:35.622Z,71.52
2022-12-23T06:37:04.089Z,71.02
2022-12-23T06:39:33.789Z,71.62
2022-12-23T06:42:02.198Z,71.98
2022-12-23T06:44:31.258Z,71.76
2022-12-23T06:46:59.658Z,72.03
2022-12-23T06:49:28.203Z,71.95
2022-12-23T06:51:56.725Z,72.94
2022-12-23T06:54:25.006Z,73.63
2022-12-23T06:56:54.482Z,73.03
2022-12-23T06:59:22.918Z,72.88
2022-12-23T07:01:51.530Z,73.00
2022-12-23T07:04:19.956Z,72.83
2022-12-23T07:06:48.099Z,72.26
2022-12-23T07:09:16.545Z,71.74
2022-12-23T07:11:44.924Z,72.25
2022-12-23T07:14:14.891Z,73.18
2022-12-23T07:16:43.157Z,72.71
2022-12-23T07:19:11.533Z,72.29
2022-12-23T07:21:40.176Z,73.05
2022-12-23T07:24:09.506Z,72.48
2022-12-23T07:26:38.994Z,72.07
2022-12-23T07:29:07.914Z,72.65
2022-12-23T07:31:40.905Z,72.13
2022-12-23T07:34:09.860Z,72.33
2022-12-23T07:36:38.133Z,72.26
2022-12-23T07:39:07.059Z,72.27
2022-12-23T07:41:35.515Z,71.71
2022-12-23T07:44:08.891Z,71.74
2022-12-23T07:46:39.324Z,70.83
2022-12-23T07:49:08.132Z,71.34
2022-12-23T07:51:36.966Z,71.34
2022-12-23T07:54:05.470Z,71.29
2022-12-23T07:56:34.338Z,71.31
2022-12-23T07:59:02.762Z,71.03
2022-12-23T08:01:32.103Z,71.56
2022-12-23T08:04:02.310Z,72.25
2022-12-23T08:06:30.449Z,72.48
2022-12-23T08:08:58.845Z,72.44
2022-12-23T08:11:27.124Z,72.59
2022-12-23T08:13:55.657Z,72.31
2022-12-23T08:16:24.622Z,72.25
2022-12-23T08:18:53.425Z,72.70
2022-12-23T08:21:23.351Z,72.33
2022-12-23T08:23:52.980Z,72.02
2022-12-23T08:26:23.340Z,70.95
2022-12-23T08:28:53.689Z,70.48
2022-12-23T08:31:24.188Z,70.69
2022-12-23T08:33:54.498Z,70.18
2022-12-23T08:36:27.780Z,69.87
2022-12-23T08:38:58.481Z,69.57
2022-12-23T08:41:29.021Z,70.69
2022-12-23T08:43:58.128Z,69.77
2022-12-23T08:46:27.432Z,69.88
2022-12-23T08:48:57.098Z,70.08
2022-12-23T08:51:28.453Z,69.94
2022-12-23T08:54:01.005Z,70.17
2022-12-23T08:56:31.894Z,70.78
2022-12-23T08:59:00.868Z,70.34
2022-12-23T09:01:31.729Z,70.77
2022-12-23T09:04:03.436Z,69.88
2022-12-23T09:06:37.916Z,69.28
2022-12-23T09:09:07.527Z,68.94
2022-12-23T09:11:36.601Z,68.14
2022-12-23T09:14:06.110Z,68.11
2022-12-23T09:16:34.845Z,68.04
2022-12-23T09:19:03.855Z,69.08
2022-12-23T09:21:32.763Z,68.88
2022-12-23T09:24:02.863Z,70.09
2022-12-23T09:26:31.862Z,69.62
2022-12-23T09:29:00.916Z,69.61
2022-12-23T09:31:36.087Z,70.03
2022-12-23T09:34:05.804Z,69.44
2022-12-23T09:36:34.613Z,68.42
2022-12-23T09:39:05.388Z,69.10
2022-12-23T09:41:53.594Z,68.67
2022-12-23T09:44:44.986Z,68.79
2022-12-23T09:47:17.612Z,68.71
2022-12-23T09:49:50.245Z,68.34
2022-12-23T09:52:30.094Z,69.40
2022-12-23T09:55:00.989Z,69.84
2022-12-23T09:57:38.276Z,69.51
2022-12-23T10:00:14.242Z,69.54
2022-12-23T10:02:57.274Z,69.71
2022-12-23T10:05:35.536Z,68.72
2022-12-23T10:08:09.515Z,69.66
2022-12-23T10:10:44.129Z,69.98
2022-12-23T10:13:26.210Z,69.39
2022-12-23T10:15:56.430Z,69.39
2022-12-23T10:18:37.070Z,70.14
2022-12-23T10:21:10.717Z,70.43
2022-12-23T10:23:42.847Z,70.73
2022-12-23T10:26:21.320Z,70.07
2022-12-23T10:28:49.881Z,69.54
2022-12-23T10:31:41.730Z,69.52
2022-12-23T10:34:21.046Z,70.08
2022-12-23T10:37:01.582Z,70.04
2022-12-23T10:39:37.520Z,70.17
2022-12-23T10:42:20.628Z,70.78
2022-12-23T10:45:20.428Z,70.48
2022-12-23T10:47:57.278Z,70.18
2022-12-23T10:50:38.834Z,69.92
2022-12-23T10:53:12.051Z,70.38
2022-12-23T10:55:41.064Z,71.20
2022-12-23T10:58:18.797Z,71.61
2022-12-23T11:00:53.313Z,72.73
2022-12-23T11:03:24.730Z,71.97
2022-12-23T11:05:54.964Z,71.85
2022-12-23T11:08:25.024Z,72.66
2022-12-23T11:10:54.266Z,71.45
2022-12-23T11:13:36.348Z,70.53
2022-12-23T11:16:18.885Z,71.21
2022-12-23T11:18:59.804Z,71.24
2022-12-23T11:21:29.200Z,71.18
2022-12-23T11:24:19.187Z,71.54
2022-12-23T11:26:51.125Z,70.37
2022-12-23T11:29:24.806Z,70.31
2022-12-23T11:31:53.856Z,69.87
2022-12-23T11:34:25.190Z,70.56
2022-12-23T11:37:01.581Z,69.56
2022-12-23T11:39:36.340Z,69.88
2022-12-23T11:42:12.454Z,70.23
2022-12-23T11:44:45.885Z,69.92
2022-12-23T11:47:29.490Z,70.06
2022-12-23T11:49:59.475Z,70.11
2022-12-23T11:52:30.235Z,70.74
2022-12-23T11:55:00.789Z,70.83
2022-12-23T11:57:39.686Z,71.00
2022-12-23T12:00:21.675Z,71.51
2022-12-23T12:02:53.698Z,71.79
2022-12-23T12:05:32.364Z,71.95
2022-12-23T12:08:04.006Z,71.93
2022-12-23T12:10:36.739Z,72.39
2022-12-23T12:13:09.323Z,71.57
2022-12-23T12:15:45.839Z,72.06
2022-12-23T12:18:18.541Z,72.23
2022-12-23T12:20:49.734Z,72.54
2022-12-23T12:23:23.466Z,71.83
2022-12-23T12:25:54.999Z,71.69
2022-12-23T12:28:27.710Z,71.47
2022-12-23T12:31:04.175Z,71.74
2022-12-23T12:33:37.507Z,71.81
2022-12-23T12:36:15.453Z,71.71
2022-12-23T12:38:48.915Z,71.80
2022-12-23T12:41:23.312Z,71.98
2022-12-23T12:44:01.713Z,71.59
2022-12-23T12:46:35.940Z,71.24
2022-12-23T12:49:13.729Z,71.38
2022-12-23T12:51:50.753Z,71.06
2022-12-23T12:54:27.289Z,71.41
2022-12-23T12:56:58.223Z,71.22
2022-12-23T12:59:29.684Z,70.46
2022-12-23T13:02:19.107Z,70.16
2022-12-23T13:05:12.017Z,69.61
2022-12-23T13:07:52.923Z,69.44
2022-12-23T13:10:34.758Z,70.05
2022-12-23T13:13:11.556Z,69.83
2022-12-23T13:15:49.223Z,69.71
2022-12-23T13:18:29.438Z,69.31
2022-12-23T13:21:04.678Z,69.53
2022-12-23T13:23:44.048Z,69.30
2022-12-23T13:26:25.334Z,68.84
2022-12-23T13:29:05.806Z,68.72
2022-12-23T13:31:47.389Z,68.70
2022-12-23T13:34:33.907Z,68.10
2022-12-23T13:37:17.209Z,68.08
2022-12-23T13:39:58.304Z,67.78
2022-12-23T13:42:33.500Z,67.01
2022-12-23T13:45:03.769Z,67.05
2022-12-23T13:47:42.684Z,67.07
2022-12-23T13:50:22.361Z,67.24
2022-12-23T13:53:09.633Z,68.59
2022-12-23T13:55:52.904Z,68.09
2022-12-23T13:58:24.023Z,68.63
2022-12-23T14:00:59.204Z,68.68
2022-12-23T14:03:34.885Z,69.40
2022-12-23T14:06:43.384Z,70.31
2022-12-23T14:09:17.448Z,70.11
2022-12-23T14:11:46.289Z,70.51
2022-12-23T14:14:23.096Z,70.54
2022-12-23T14:17:04.718Z,70.10
2022-12-23T14:19:53.033Z,70.27
2022-12-23T14:22:40.200Z,70.43
2022-12-23T14:25:32.723Z,69.12
2022-12-23T14:28:09.194Z,69.92
2022-12-23T14:30:41.248Z,69.70
2022-12-23T14:33:17.411Z,68.32
2022-12-23T14:35:54.687Z,67.85
2022-12-23T14:38:33.220Z,67.96
2022-12-23T14:41:24.628Z,68.48
2022-12-23T14:43:59.621Z,67.83
2022-12-23T14:46:59.473Z,68.17
2022-12-23T14:49:41.097Z,67.90
2022-12-23T14:52:58.853Z,67.31
2022-12-23T14:55:49.247Z,67.63
2022-12-23T14:59:06.301Z,66.78
2022-12-23T15:01:39.910Z,66.08
2022-12-23T15:04:19.740Z,65.55
2022-12-23T15:06:50.774Z,65.43
2022-12-23T15:09:27.057Z,65.44
2022-12-23T15:11:59.588Z,66.87
2022-12-23T15:14:34.137Z,67.28
2022-12-23T15:17:16.714Z,65.58
2022-12-23T15:19:48.542Z,65.84
2022-12-23T15:22:22.643Z,65.52
2022-12-23T15:24:54.342Z,65.79
2022-12-23T15:27:27.873Z,66.89
2022-12-23T15:29:58.341Z,66.74
2022-12-23T15:32:27.986Z,65.84
2022-12-23T15:35:03.695Z,66.74
2022-12-23T15:37:33.401Z,66.06
2022-12-23T15:40:12.546Z,65.63
2022-12-23T15:42:48.483Z,65.15
2022-12-23T15:45:32.694Z,64.67
2022-12-23T15:48:01.382Z,65.71
2022-12-23T15:50:30.468Z,66.02
2022-12-23T15:53:06.932Z,66.94
2022-12-23T15:55:37.828Z,67.30
2022-12-23T15:58:07.487Z,67.83
2022-12-23T16:00:40.825Z,68.05
2022-12-23T16:03:26.779Z,67.82
2022-12-23T16:05:56.509Z,67.62
2022-12-23T16:08:30.279Z,68.13
2022-12-23T16:11:06.966Z,69.26
2022-12-23T16:13:42.993Z,69.14
2022-12-23T16:16:32.056Z,68.98
2022-12-23T16:19:00.353Z,67.97
2022-12-23T16:21:32.751Z,68.04
2022-12-23T16:24:02.192Z,68.33
2022-12-23T16:26:30.802Z,67.49
2022-12-23T16:29:02.503Z,67.90
2022-12-23T16:31:30.835Z,68.48
2022-12-23T16:33:59.836Z,68.15
2022-12-23T16:36:35.985Z,68.31
2022-12-23T16:39:17.379Z,68.54
2022-12-23T16:41:46.276Z,68.74
2022-12-23T16:44:16.121Z,68.34
2022-12-23T16:46:47.273Z,67.44
2022-12-23T16:49:17.802Z,67.17
2022-12-23T16:51:46.947Z,68.21
2022-12-23T16:54:17.532Z,68.15
2022-12-23T16:56:47.530Z,67.60
2022-12-23T16:59:18.133Z,66.92
2022-12-23T17:01:48.296Z,66.59
2022-12-23T17:04:16.996Z,66.42
2022-12-23T17:06:46.685Z,64.69
2022-12-23T17:09:15.226Z,64.57
2022-12-23T17:11:46.587Z,63.90
2022-12-23T17:14:21.465Z,64.56
2022-12-23T17:16:51.482Z,64.16
2022-12-23T17:19:27.972Z,63.85
2022-12-23T17:22:02.597Z,64.29
2022-12-23T17:24:31.086Z,64.43
2022-12-23T17:26:59.871Z,64.61
2022-12-23T17:29:29.517Z,64.44
2022-12-23T17:31:58.252Z,64.04
2022-12-23T17:34:26.765Z,64.13
2022-12-23T17:36:55.248Z,63.97
2022-12-23T17:39:24.010Z,63.76
2022-12-23T17:41:52.696Z,63.59
2022-12-23T17:44:21.595Z,64.28
2022-12-23T17:46:51.164Z,64.74
2022-12-23T17:49:19.990Z,65.22
2022-12-23T17:51:48.450Z,65.72
2022-12-23T17:54:23.805Z,67.41
2022-12-23T17:56:52.076Z,67.33
2022-12-23T17:59:21.950Z,65.70
2022-12-23T18:01:52.111Z,64.75
2022-12-23T18:04:21.120Z,64.52
2022-12-23T18:06:49.818Z,64.22
2022-12-23T18:09:18.924Z,63.88
2022-12-23T18:11:48.075Z,64.26
2022-12-23T18:14:23.626Z,65.41
2022-12-23T18:17:00.898Z,64.87
2022-12-23T18:19:29.330Z,64.76
2022-12-23T18:21:58.398Z,65.35
2022-12-23T18:24:27.335Z,64.51
2022-12-23T18:26:55.589Z,64.26
2022-12-23T18:29:24.073Z,64.91
2022-12-23T18:31:53.899Z,65.20
2022-12-23T18:34:22.344Z,66.94
2022-12-23T18:36:52.327Z,65.92
2022-12-23T18:39:21.334Z,65.70
2022-12-23T18:41:49.837Z,66.73
2022-12-23T18:44:21.327Z,66.02
2022-12-23T18:46:50.468Z,67.84
2022-12-23T18:49:20.370Z,68.77
2022-12-23T18:51:48.662Z,68.22
2022-12-23T18:54:17.446Z,67.49
2022-12-23T18:56:46.906Z,67.33
2022-12-23T18:59:21.395Z,66.44
2022-12-23T19:01:58.475Z,67.05
2022-12-23T19:04:28.468Z,67.14
2022-12-23T19:06:57.544Z,67.18
2022-12-23T19:09:26.493Z,66.26
2022-12-23T19:11:55.174Z,65.35
2022-12-23T19:14:24.132Z,65.45
2022-12-23T19:16:52.957Z,64.98
2022-12-23T19:19:22.208Z,66.81
2022-12-23T19:22:16.597Z,66.67
2022-12-23T19:25:04.036Z,66.97
2022-12-23T19:27:33.940Z,64.84
2022-12-23T19:30:05.496Z,65.95
2022-12-23T19:32:37.489Z,69.40
2022-12-23T19:35:06.753Z,68.66
2022-12-23T19:37:38.427Z,67.47
2022-12-23T19:40:08.288Z,67.67
2022-12-23T19:42:38.532Z,68.84
2022-12-23T19:45:11.122Z,67.58
2022-12-23T19:47:39.997Z,69.86
2022-12-23T19:50:10.049Z,69.39
2022-12-23T19:52:39.938Z,70.13
2022-12-23T19:55:10.326Z,69.70
2022-12-23T19:57:38.961Z,69.44
2022-12-23T20:00:12.383Z,69.27
2022-12-23T20:02:41.148Z,69.23
2022-12-23T20:05:10.852Z,70.23
2022-12-23T20:07:41.270Z,67.98
2022-12-23T20:10:10.509Z,68.92
2022-12-23T20:12:40.498Z,68.78
2022-12-23T20:15:16.718Z,68.24
2022-12-23T20:17:49.027Z,68.95
2022-12-23T20:20:17.738Z,68.52
2022-12-23T20:22:47.739Z,67.55
2022-12-23T20:25:16.512Z,69.46
2022-12-23T20:27:44.764Z,69.02
2022-12-23T20:30:14.210Z,68.91
2022-12-23T20:32:42.786Z,70.14
2022-12-23T20:35:11.741Z,69.49
2022-12-23T20:37:40.059Z,71.26
2022-12-23T20:40:12.913Z,70.77
2022-12-23T20:42:41.373Z,70.32
2022-12-23T20:45:10.860Z,70.98
2022-12-23T20:47:39.487Z,70.50
2022-12-23T20:50:09.346Z,70.55
2022-12-23T20:52:37.456Z,71.36
2022-12-23T20:55:06.920Z,71.05
2022-12-23T20:57:36.733Z,70.78
2022-12-23T21:00:08.739Z,71.55
2022-12-23T21:02:37.682Z,73.28
2022-12-23T21:05:06.561Z,70.88
2022-12-23T21:07:34.731Z,71.53
2022-12-23T21:10:02.986Z,71.04
2022-12-23T21:12:31.299Z,72.69
2022-12-23T21:15:01.268Z,72.08
2022-12-23T21:17:31.241Z,69.72
2022-12-23T21:20:06.958Z,71.12
2022-12-23T21:22:36.454Z,69.79
2022-12-23T21:25:05.468Z,69.95
2022-12-23T21:27:34.223Z,72.01
2022-12-23T21:30:06.031Z,72.31
2022-12-23T21:32:34.863Z,72.78
2022-12-23T21:35:03.590Z,72.39
2022-12-23T21:37:32.027Z,72.23
2022-12-23T21:40:00.517Z,72.81
2022-12-23T21:42:28.977Z,71.32
2022-12-23T21:44:57.201Z,71.16
2022-12-23T21:47:26.774Z,71.13
2022-12-23T21:49:55.172Z,71.07
2022-12-23T21:52:23.765Z,71.80
2022-12-23T21:54:51.941Z,71.47
2022-12-23T21:57:20.606Z,72.27
2022-12-23T21:59:49.362Z,72.26
2022-12-23T22:02:18.150Z,73.54
2022-12-23T22:04:47.798Z,72.19
2022-12-23T22:07:16.142Z,72.35
2022-12-23T22:09:44.317Z,71.79
2022-12-23T22:12:12.899Z,70.52
2022-12-23T22:14:41.311Z,69.97
2022-12-23T22:17:09.438Z,68.12
2022-12-23T22:19:37.515Z,68.87
2022-12-23T22:22:07.578Z,70.39
2022-12-23T22:24:35.807Z,72.32
2022-12-23T22:27:04.380Z,70.06
2022-12-23T22:29:33.191Z,71.02
2022-12-23T22:32:02.114Z,71.16
2022-12-23T22:34:30.370Z,70.87
2022-12-23T22:36:58.920Z,70.68
2022-12-23T22:39:28.961Z,69.30
2022-12-23T22:41:57.959Z,70.05
2022-12-23T22:44:26.434Z,70.42
2022-12-23T22:46:55.126Z,71.20
2022-12-23T22:49:23.682Z,70.65
2022-12-23T22:51:52.055Z,70.24
2022-12-23T22:54:21.053Z,70.61
2022-12-23T22:56:50.759Z,70.39
2022-12-23T22:59:22.365Z,70.91
2022-12-23T23:01:52.371Z,69.88
2022-12-23T23:04:21.167Z,69.86
2022-12-23T23:06:50.125Z,70.45
2022-12-23T23:09:20.962Z,70.56
2022-12-23T23:11:51.273Z,70.53
2022-12-23T23:14:20.179Z,71.12
2022-12-23T23:16:48.847Z,70.31
2022-12-23T23:19:20.469Z,70.35
2022-12-23T23:21:49.234Z,70.83
2022-12-23T23:24:17.570Z,72.23
2022-12-23T23:26:45.833Z,72.46
2022-12-23T23:29:15.382Z,72.52
2022-12-23T23:31:44.734Z,73.00
2022-12-23T23:34:13.553Z,73.96
2022-12-23T23:36:42.125Z,74.47
2022-12-23T23:39:12.644Z,74.37
2022-12-23T23:41:41.583Z,74.11
2022-12-23T23:44:10.893Z,74.33
2022-12-23T23:46:41.147Z,74.54
2022-12-23T23:49:09.883Z,75.37
2022-12-23T23:51:39.542Z,74.67
2022-12-23T23:54:07.861Z,75.97
2022-12-23T23:56:39.201Z,74.13
2022-12-23T23:59:08.609Z,73.43
